sensor_id;sensor_type;location;lat;lon;timestamp;P1;durP1;ratioP1;P2;durP2;ratioP2
71265;SDS011;59030;52.052;8.550;2022-09-25T00:01:09;26.87;;;18.17;;
71265;SDS011;59030;52.052;8.550;2022-09-25T00:03:36;28.33;;;18.63;;
71265;SDS011;59030;52.052;8.550;2022-09-25T00:06:05;26.47;;;17.90;;
71265;SDS011;59030;52.052;8.550;2022-09-25T00:08:32;26.40;;;17.97;;
71265;SDS011;59030;52.052;8.550;2022-09-25T00:11:03;26.40;;;17.87;;
71265;SDS011;59030;52.052;8.550;2022-09-25T00:13:29;26.80;;;17.23;;
71265;SDS011;59030;52.052;8.550;2022-09-25T00:15:56;23.63;;;17.90;;
71265;SDS011;59030;52.052;8.550;2022-09-25T00:18:24;26.17;;;17.37;;
71265;SDS011;59030;52.052;8.550;2022-09-25T00:21:13;29.50;;;18.37;;
71265;SDS011;59030;52.052;8.550;2022-09-25T00:23:39;27.53;;;18.40;;
71265;SDS011;59030;52.052;8.550;2022-09-25T00:26:07;27.03;;;17.90;;
71265;SDS011;59030;52.052;8.550;2022-09-25T00:28:35;26.27;;;17.67;;
71265;SDS011;59030;52.052;8.550;2022-09-25T00:31:03;26.40;;;17.00;;
71265;SDS011;59030;52.052;8.550;2022-09-25T00:33:31;23.87;;;15.90;;
71265;SDS011;59030;52.052;8.550;2022-09-25T00:36:00;22.40;;;14.40;;
71265;SDS011;59030;52.052;8.550;2022-09-25T00:38:29;18.23;;;14.47;;
71265;SDS011;59030;52.052;8.550;2022-09-25T00:40:58;23.67;;;14.90;;
71265;SDS011;59030;52.052;8.550;2022-09-25T00:43:36;17.70;;;14.23;;
71265;SDS011;59030;52.052;8.550;2022-09-25T00:46:06;23.80;;;15.20;;
71265;SDS011;59030;52.052;8.550;2022-09-25T00:48:34;21.30;;;14.77;;
71265;SDS011;59030;52.052;8.550;2022-09-25T00:51:02;22.97;;;14.60;;
71265;SDS011;59030;52.052;8.550;2022-09-25T00:53:31;20.70;;;13.77;;
71265;SDS011;59030;52.052;8.550;2022-09-25T00:55:59;17.63;;;13.93;;
71265;SDS011;59030;52.052;8.550;2022-09-25T00:58:27;20.80;;;14.03;;
71265;SDS011;59030;52.052;8.550;2022-09-25T01:00:58;23.47;;;13.90;;
71265;SDS011;59030;52.052;8.550;2022-09-25T01:03:26;20.37;;;13.43;;
71265;SDS011;59030;52.052;8.550;2022-09-25T01:05:56;18.90;;;12.80;;
71265;SDS011;59030;52.052;8.550;2022-09-25T01:08:25;21.80;;;12.90;;
71265;SDS011;59030;52.052;8.550;2022-09-25T01:10:53;18.03;;;12.47;;
71265;SDS011;59030;52.052;8.550;2022-09-25T01:13:21;18.97;;;12.30;;
71265;SDS011;59030;52.052;8.550;2022-09-25T01:15:52;18.50;;;11.33;;
71265;SDS011;59030;52.052;8.550;2022-09-25T01:18:22;16.97;;;11.67;;
71265;SDS011;59030;52.052;8.550;2022-09-25T01:20:58;18.60;;;11.63;;
71265;SDS011;59030;52.052;8.550;2022-09-25T01:23:29;19.27;;;11.80;;
71265;SDS011;59030;52.052;8.550;2022-09-25T01:26:06;18.20;;;11.40;;
71265;SDS011;59030;52.052;8.550;2022-09-25T01:28:42;19.63;;;10.77;;
71265;SDS011;59030;52.052;8.550;2022-09-25T01:31:13;16.77;;;11.53;;
71265;SDS011;59030;52.052;8.550;2022-09-25T01:33:40;15.63;;;11.07;;
71265;SDS011;59030;52.052;8.550;2022-09-25T01:36:10;17.30;;;12.00;;
71265;SDS011;59030;52.052;8.550;2022-09-25T01:38:38;17.80;;;10.87;;
71265;SDS011;59030;52.052;8.550;2022-09-25T01:41:08;17.47;;;10.27;;
71265;SDS011;59030;52.052;8.550;2022-09-25T01:43:37;16.47;;;10.23;;
71265;SDS011;59030;52.052;8.550;2022-09-25T01:46:06;13.70;;;9.73;;
71265;SDS011;59030;52.052;8.550;2022-09-25T01:48:34;14.03;;;9.40;;
71265;SDS011;59030;52.052;8.550;2022-09-25T01:51:04;14.00;;;9.27;;
71265;SDS011;59030;52.052;8.550;2022-09-25T01:53:32;15.47;;;9.10;;
71265;SDS011;59030;52.052;8.550;2022-09-25T01:56:03;14.97;;;9.77;;
71265;SDS011;59030;52.052;8.550;2022-09-25T01:58:31;16.17;;;9.77;;
71265;SDS011;59030;52.052;8.550;2022-09-25T02:01:00;16.73;;;9.53;;
71265;SDS011;59030;52.052;8.550;2022-09-25T02:03:31;17.57;;;8.67;;
71265;SDS011;59030;52.052;8.550;2022-09-25T02:05:59;11.93;;;9.40;;
71265;SDS011;59030;52.052;8.550;2022-09-25T02:08:29;14.23;;;8.27;;
71265;SDS011;59030;52.052;8.550;2022-09-25T02:10:57;13.57;;;8.60;;
71265;SDS011;59030;52.052;8.550;2022-09-25T02:13:26;14.23;;;8.73;;
71265;SDS011;59030;52.052;8.550;2022-09-25T02:15:55;10.97;;;7.23;;
71265;SDS011;59030;52.052;8.550;2022-09-25T02:18:23;12.73;;;7.23;;
71265;SDS011;59030;52.052;8.550;2022-09-25T02:21:11;12.87;;;7.03;;
71265;SDS011;59030;52.052;8.550;2022-09-25T02:23:42;11.40;;;7.00;;
71265;SDS011;59030;52.052;8.550;2022-09-25T02:26:10;14.73;;;6.67;;
71265;SDS011;59030;52.052;8.550;2022-09-25T02:28:39;11.30;;;6.33;;
71265;SDS011;59030;52.052;8.550;2022-09-25T02:31:08;9.30;;;5.87;;
71265;SDS011;59030;52.052;8.550;2022-09-25T02:33:36;9.60;;;5.57;;
71265;SDS011;59030;52.052;8.550;2022-09-25T02:36:04;8.47;;;5.13;;
71265;SDS011;59030;52.052;8.550;2022-09-25T02:38:32;8.77;;;4.83;;
71265;SDS011;59030;52.052;8.550;2022-09-25T02:41:01;9.43;;;4.73;;
71265;SDS011;59030;52.052;8.550;2022-09-25T02:43:31;11.27;;;5.07;;
71265;SDS011;59030;52.052;8.550;2022-09-25T02:46:01;9.87;;;4.80;;
71265;SDS011;59030;52.052;8.550;2022-09-25T02:48:30;6.93;;;4.70;;
71265;SDS011;59030;52.052;8.550;2022-09-25T02:50:58;12.70;;;4.93;;
71265;SDS011;59030;52.052;8.550;2022-09-25T02:53:30;10.70;;;5.00;;
71265;SDS011;59030;52.052;8.550;2022-09-25T02:55:59;6.40;;;4.43;;
71265;SDS011;59030;52.052;8.550;2022-09-25T02:58:28;9.53;;;4.77;;
71265;SDS011;59030;52.052;8.550;2022-09-25T03:00:56;11.47;;;4.23;;
71265;SDS011;59030;52.052;8.550;2022-09-25T03:03:24;7.27;;;4.07;;
71265;SDS011;59030;52.052;8.550;2022-09-25T03:05:53;11.00;;;4.10;;
71265;SDS011;59030;52.052;8.550;2022-09-25T03:08:21;12.40;;;4.07;;
71265;SDS011;59030;52.052;8.550;2022-09-25T03:11:07;11.87;;;4.40;;
71265;SDS011;59030;52.052;8.550;2022-09-25T03:13:35;7.03;;;3.67;;
71265;SDS011;59030;52.052;8.550;2022-09-25T03:16:05;8.37;;;3.70;;
71265;SDS011;59030;52.052;8.550;2022-09-25T03:18:35;7.80;;;3.97;;
71265;SDS011;59030;52.052;8.550;2022-09-25T03:21:03;10.07;;;3.77;;
71265;SDS011;59030;52.052;8.550;2022-09-25T03:23:30;10.60;;;3.63;;
71265;SDS011;59030;52.052;8.550;2022-09-25T03:25:58;6.70;;;3.63;;
71265;SDS011;59030;52.052;8.550;2022-09-25T03:28:25;6.80;;;3.40;;
71265;SDS011;59030;52.052;8.550;2022-09-25T03:30:56;7.90;;;3.10;;
71265;SDS011;59030;52.052;8.550;2022-09-25T03:33:24;9.73;;;3.20;;
71265;SDS011;59030;52.052;8.550;2022-09-25T03:36:03;5.57;;;3.20;;
71265;SDS011;59030;52.052;8.550;2022-09-25T03:38:30;10.67;;;3.07;;
71265;SDS011;59030;52.052;8.550;2022-09-25T03:40:58;7.70;;;3.13;;
71265;SDS011;59030;52.052;8.550;2022-09-25T03:43:25;7.10;;;3.07;;
71265;SDS011;59030;52.052;8.550;2022-09-25T03:45:54;7.43;;;3.40;;
71265;SDS011;59030;52.052;8.550;2022-09-25T03:48:22;7.93;;;3.23;;
71265;SDS011;59030;52.052;8.550;2022-09-25T03:50:49;10.00;;;2.63;;
71265;SDS011;59030;52.052;8.550;2022-09-25T03:53:16;7.57;;;2.83;;
71265;SDS011;59030;52.052;8.550;2022-09-25T03:55:44;13.83;;;3.47;;
71265;SDS011;59030;52.052;8.550;2022-09-25T03:58:14;7.97;;;2.90;;
71265;SDS011;59030;52.052;8.550;2022-09-25T04:00:41;8.03;;;2.87;;
71265;SDS011;59030;52.052;8.550;2022-09-25T04:03:09;8.07;;;3.00;;
71265;SDS011;59030;52.052;8.550;2022-09-25T04:05:36;8.70;;;3.13;;
71265;SDS011;59030;52.052;8.550;2022-09-25T04:08:04;8.20;;;2.87;;
71265;SDS011;59030;52.052;8.550;2022-09-25T04:10:31;6.53;;;2.77;;
71265;SDS011;59030;52.052;8.550;2022-09-25T04:13:00;9.30;;;3.13;;
71265;SDS011;59030;52.052;8.550;2022-09-25T04:15:28;8.13;;;2.80;;
71265;SDS011;59030;52.052;8.550;2022-09-25T04:17:57;7.50;;;2.93;;
71265;SDS011;59030;52.052;8.550;2022-09-25T04:20:24;7.30;;;2.80;;
71265;SDS011;59030;52.052;8.550;2022-09-25T04:22:51;8.20;;;2.60;;
71265;SDS011;59030;52.052;8.550;2022-09-25T04:25:18;7.70;;;2.67;;
71265;SDS011;59030;52.052;8.550;2022-09-25T04:27:46;19.93;;;3.13;;
71265;SDS011;59030;52.052;8.550;2022-09-25T04:30:14;7.47;;;2.47;;
71265;SDS011;59030;52.052;8.550;2022-09-25T04:32:42;9.33;;;2.70;;
71265;SDS011;59030;52.052;8.550;2022-09-25T04:35:27;6.00;;;2.33;;
71265;SDS011;59030;52.052;8.550;2022-09-25T04:37:54;6.97;;;2.13;;
71265;SDS011;59030;52.052;8.550;2022-09-25T04:40:22;3.70;;;2.13;;
71265;SDS011;59030;52.052;8.550;2022-09-25T04:42:49;9.07;;;2.37;;
71265;SDS011;59030;52.052;8.550;2022-09-25T04:45:18;5.23;;;2.20;;
71265;SDS011;59030;52.052;8.550;2022-09-25T04:47:45;7.77;;;2.60;;
71265;SDS011;59030;52.052;8.550;2022-09-25T04:50:13;5.30;;;2.07;;
71265;SDS011;59030;52.052;8.550;2022-09-25T04:52:41;6.83;;;2.40;;
71265;SDS011;59030;52.052;8.550;2022-09-25T04:55:08;9.60;;;2.80;;
71265;SDS011;59030;52.052;8.550;2022-09-25T04:57:35;10.53;;;2.07;;
71265;SDS011;59030;52.052;8.550;2022-09-25T05:00:05;8.60;;;2.43;;
71265;SDS011;59030;52.052;8.550;2022-09-25T05:02:33;9.97;;;2.57;;
71265;SDS011;59030;52.052;8.550;2022-09-25T05:05:00;7.60;;;2.57;;
71265;SDS011;59030;52.052;8.550;2022-09-25T05:07:27;6.53;;;2.47;;
71265;SDS011;59030;52.052;8.550;2022-09-25T05:09:55;5.83;;;2.17;;
71265;SDS011;59030;52.052;8.550;2022-09-25T05:12:23;7.60;;;2.50;;
71265;SDS011;59030;52.052;8.550;2022-09-25T05:14:51;8.17;;;2.40;;
71265;SDS011;59030;52.052;8.550;2022-09-25T05:17:18;11.13;;;2.50;;
71265;SDS011;59030;52.052;8.550;2022-09-25T05:19:46;6.90;;;2.07;;
71265;SDS011;59030;52.052;8.550;2022-09-25T05:22:13;9.63;;;2.47;;
71265;SDS011;59030;52.052;8.550;2022-09-25T05:24:41;5.63;;;2.10;;
71265;SDS011;59030;52.052;8.550;2022-09-25T05:27:08;11.73;;;2.20;;
71265;SDS011;59030;52.052;8.550;2022-09-25T05:29:37;8.17;;;2.13;;
71265;SDS011;59030;52.052;8.550;2022-09-25T05:32:06;9.33;;;2.33;;
71265;SDS011;59030;52.052;8.550;2022-09-25T05:34:33;4.40;;;2.03;;
71265;SDS011;59030;52.052;8.550;2022-09-25T05:37:00;5.73;;;2.23;;
71265;SDS011;59030;52.052;8.550;2022-09-25T05:39:29;7.77;;;2.33;;
71265;SDS011;59030;52.052;8.550;2022-09-25T05:41:56;7.53;;;2.23;;
71265;SDS011;59030;52.052;8.550;2022-09-25T05:44:24;5.63;;;2.00;;
71265;SDS011;59030;52.052;8.550;2022-09-25T05:46:53;4.10;;;1.80;;
71265;SDS011;59030;52.052;8.550;2022-09-25T05:49:21;3.27;;;1.53;;
71265;SDS011;59030;52.052;8.550;2022-09-25T05:51:48;3.53;;;1.43;;
71265;SDS011;59030;52.052;8.550;2022-09-25T05:54:16;4.23;;;1.67;;
71265;SDS011;59030;52.052;8.550;2022-09-25T05:56:43;5.90;;;2.27;;
71265;SDS011;59030;52.052;8.550;2022-09-25T05:59:10;6.50;;;1.90;;
71265;SDS011;59030;52.052;8.550;2022-09-25T06:01:38;3.27;;;1.67;;
71265;SDS011;59030;52.052;8.550;2022-09-25T06:04:06;4.47;;;1.60;;
71265;SDS011;59030;52.052;8.550;2022-09-25T06:06:33;3.33;;;1.57;;
71265;SDS011;59030;52.052;8.550;2022-09-25T06:09:01;3.30;;;1.67;;
71265;SDS011;59030;52.052;8.550;2022-09-25T06:11:28;3.60;;;1.70;;
71265;SDS011;59030;52.052;8.550;2022-09-25T06:13:56;4.00;;;1.60;;
71265;SDS011;59030;52.052;8.550;2022-09-25T06:16:25;3.07;;;1.70;;
71265;SDS011;59030;52.052;8.550;2022-09-25T06:18:53;3.90;;;1.60;;
71265;SDS011;59030;52.052;8.550;2022-09-25T06:21:20;3.50;;;1.50;;
71265;SDS011;59030;52.052;8.550;2022-09-25T06:23:48;3.03;;;1.67;;
71265;SDS011;59030;52.052;8.550;2022-09-25T06:26:15;5.70;;;1.70;;
71265;SDS011;59030;52.052;8.550;2022-09-25T06:28:42;4.37;;;1.60;;
71265;SDS011;59030;52.052;8.550;2022-09-25T06:31:10;3.03;;;1.73;;
71265;SDS011;59030;52.052;8.550;2022-09-25T06:33:37;3.43;;;1.80;;
71265;SDS011;59030;52.052;8.550;2022-09-25T06:36:05;2.73;;;1.80;;
71265;SDS011;59030;52.052;8.550;2022-09-25T06:38:32;2.73;;;1.50;;
71265;SDS011;59030;52.052;8.550;2022-09-25T06:41:00;3.63;;;1.83;;
71265;SDS011;59030;52.052;8.550;2022-09-25T06:43:28;4.07;;;1.80;;
71265;SDS011;59030;52.052;8.550;2022-09-25T06:45:58;2.23;;;1.50;;
71265;SDS011;59030;52.052;8.550;2022-09-25T06:48:27;2.53;;;1.57;;
71265;SDS011;59030;52.052;8.550;2022-09-25T06:50:57;1.93;;;1.50;;
71265;SDS011;59030;52.052;8.550;2022-09-25T06:53:24;3.77;;;1.97;;
71265;SDS011;59030;52.052;8.550;2022-09-25T06:55:54;2.80;;;1.83;;
71265;SDS011;59030;52.052;8.550;2022-09-25T06:58:21;4.30;;;1.70;;
71265;SDS011;59030;52.052;8.550;2022-09-25T07:00:50;5.03;;;1.80;;
71265;SDS011;59030;52.052;8.550;2022-09-25T07:03:18;1.50;;;1.30;;
71265;SDS011;59030;52.052;8.550;2022-09-25T07:06:04;2.07;;;1.60;;
71265;SDS011;59030;52.052;8.550;2022-09-25T07:08:32;5.23;;;1.67;;
71265;SDS011;59030;52.052;8.550;2022-09-25T07:11:09;3.60;;;1.70;;
71265;SDS011;59030;52.052;8.550;2022-09-25T07:13:37;5.53;;;1.90;;
71265;SDS011;59030;52.052;8.550;2022-09-25T07:16:06;2.77;;;1.47;;
71265;SDS011;59030;52.052;8.550;2022-09-25T07:18:34;3.43;;;1.70;;
71265;SDS011;59030;52.052;8.550;2022-09-25T07:21:03;4.60;;;1.83;;
71265;SDS011;59030;52.052;8.550;2022-09-25T07:23:32;2.77;;;1.53;;
71265;SDS011;59030;52.052;8.550;2022-09-25T07:26:04;2.07;;;1.70;;
71265;SDS011;59030;52.052;8.550;2022-09-25T07:28:32;5.13;;;1.57;;
71265;SDS011;59030;52.052;8.550;2022-09-25T07:30:59;3.63;;;1.80;;
71265;SDS011;59030;52.052;8.550;2022-09-25T07:33:28;2.77;;;1.60;;
71265;SDS011;59030;52.052;8.550;2022-09-25T07:35:55;2.40;;;1.30;;
71265;SDS011;59030;52.052;8.550;2022-09-25T07:38:24;3.37;;;1.47;;
71265;SDS011;59030;52.052;8.550;2022-09-25T07:40:52;3.97;;;2.00;;
71265;SDS011;59030;52.052;8.550;2022-09-25T07:43:25;2.47;;;1.60;;
71265;SDS011;59030;52.052;8.550;2022-09-25T07:45:55;3.87;;;2.00;;
71265;SDS011;59030;52.052;8.550;2022-09-25T07:48:24;2.50;;;1.60;;
71265;SDS011;59030;52.052;8.550;2022-09-25T07:50:52;5.63;;;1.87;;
71265;SDS011;59030;52.052;8.550;2022-09-25T07:53:20;5.07;;;1.60;;
71265;SDS011;59030;52.052;8.550;2022-09-25T07:55:48;2.70;;;1.60;;
71265;SDS011;59030;52.052;8.550;2022-09-25T07:58:18;3.17;;;1.77;;
71265;SDS011;59030;52.052;8.550;2022-09-25T08:00:49;3.97;;;1.70;;
71265;SDS011;59030;52.052;8.550;2022-09-25T08:03:16;2.87;;;1.60;;
71265;SDS011;59030;52.052;8.550;2022-09-25T08:08:52;5.43;;;1.60;;
71265;SDS011;59030;52.052;8.550;2022-09-25T08:14:49;1.50;;;1.40;;
71265;SDS011;59030;52.052;8.550;2022-09-25T08:17:31;1.80;;;1.53;;
71265;SDS011;59030;52.052;8.550;2022-09-25T08:20:20;3.10;;;1.57;;
71265;SDS011;59030;52.052;8.550;2022-09-25T08:22:59;4.47;;;1.83;;
71265;SDS011;59030;52.052;8.550;2022-09-25T08:25:36;5.00;;;1.63;;
71265;SDS011;59030;52.052;8.550;2022-09-25T08:31:12;3.17;;;1.80;;
71265;SDS011;59030;52.052;8.550;2022-09-25T08:33:46;3.47;;;1.90;;
71265;SDS011;59030;52.052;8.550;2022-09-25T08:36:35;3.17;;;1.70;;
71265;SDS011;59030;52.052;8.550;2022-09-25T08:39:33;3.50;;;1.90;;
71265;SDS011;59030;52.052;8.550;2022-09-25T08:42:38;3.57;;;1.57;;
71265;SDS011;59030;52.052;8.550;2022-09-25T08:45:18;4.07;;;1.60;;
71265;SDS011;59030;52.052;8.550;2022-09-25T08:48:06;5.10;;;1.70;;
71265;SDS011;59030;52.052;8.550;2022-09-25T08:53:37;4.53;;;1.90;;
71265;SDS011;59030;52.052;8.550;2022-09-25T08:56:09;2.30;;;1.63;;
71265;SDS011;59030;52.052;8.550;2022-09-25T08:58:50;2.53;;;1.77;;
71265;SDS011;59030;52.052;8.550;2022-09-25T09:01:18;3.30;;;1.77;;
71265;SDS011;59030;52.052;8.550;2022-09-25T09:03:47;2.40;;;1.50;;
71265;SDS011;59030;52.052;8.550;2022-09-25T09:06:16;2.27;;;1.63;;
71265;SDS011;59030;52.052;8.550;2022-09-25T09:08:45;2.53;;;1.60;;
71265;SDS011;59030;52.052;8.550;2022-09-25T09:11:14;3.87;;;1.70;;
71265;SDS011;59030;52.052;8.550;2022-09-25T09:13:42;4.90;;;1.87;;
71265;SDS011;59030;52.052;8.550;2022-09-25T09:16:12;5.13;;;1.60;;
71265;SDS011;59030;52.052;8.550;2022-09-25T09:18:40;3.47;;;2.07;;
71265;SDS011;59030;52.052;8.550;2022-09-25T09:21:09;3.43;;;1.97;;
71265;SDS011;59030;52.052;8.550;2022-09-25T09:23:39;3.80;;;1.70;;
71265;SDS011;59030;52.052;8.550;2022-09-25T09:26:10;3.00;;;1.53;;
71265;SDS011;59030;52.052;8.550;2022-09-25T09:28:44;4.00;;;1.60;;
71265;SDS011;59030;52.052;8.550;2022-09-25T09:31:12;1.63;;;1.53;;
71265;SDS011;59030;52.052;8.550;2022-09-25T09:34:00;1.73;;;1.40;;
71265;SDS011;59030;52.052;8.550;2022-09-25T09:36:31;3.07;;;1.40;;
71265;SDS011;59030;52.052;8.550;2022-09-25T09:39:04;2.80;;;1.40;;
71265;SDS011;59030;52.052;8.550;2022-09-25T09:41:34;2.73;;;1.53;;
71265;SDS011;59030;52.052;8.550;2022-09-25T09:44:08;3.40;;;1.60;;
71265;SDS011;59030;52.052;8.550;2022-09-25T09:46:54;3.13;;;1.30;;
71265;SDS011;59030;52.052;8.550;2022-09-25T09:49:11;2.20;;;1.50;;
71265;SDS011;59030;52.052;8.550;2022-09-25T09:51:40;2.33;;;1.50;;
71265;SDS011;59030;52.052;8.550;2022-09-25T09:54:10;2.67;;;1.60;;
71265;SDS011;59030;52.052;8.550;2022-09-25T09:56:39;2.23;;;1.37;;
71265;SDS011;59030;52.052;8.550;2022-09-25T09:59:10;3.40;;;1.50;;
71265;SDS011;59030;52.052;8.550;2022-09-25T10:01:37;3.20;;;1.50;;
71265;SDS011;59030;52.052;8.550;2022-09-25T10:04:07;2.40;;;1.40;;
71265;SDS011;59030;52.052;8.550;2022-09-25T10:06:54;2.37;;;1.10;;
71265;SDS011;59030;52.052;8.550;2022-09-25T10:09:21;4.53;;;1.47;;
71265;SDS011;59030;52.052;8.550;2022-09-25T10:11:51;2.20;;;1.37;;
71265;SDS011;59030;52.052;8.550;2022-09-25T10:14:20;2.43;;;1.43;;
71265;SDS011;59030;52.052;8.550;2022-09-25T10:16:48;4.67;;;1.40;;
71265;SDS011;59030;52.052;8.550;2022-09-25T10:19:17;1.33;;;1.00;;
71265;SDS011;59030;52.052;8.550;2022-09-25T10:21:46;2.07;;;1.40;;
71265;SDS011;59030;52.052;8.550;2022-09-25T10:24:29;3.00;;;1.30;;
71265;SDS011;59030;52.052;8.550;2022-09-25T10:26:54;1.20;;;1.10;;
71265;SDS011;59030;52.052;8.550;2022-09-25T10:29:24;2.97;;;1.33;;
71265;SDS011;59030;52.052;8.550;2022-09-25T10:31:56;1.97;;;1.10;;
71265;SDS011;59030;52.052;8.550;2022-09-25T10:34:24;1.90;;;1.00;;
71265;SDS011;59030;52.052;8.550;2022-09-25T10:36:53;3.63;;;1.30;;
71265;SDS011;59030;52.052;8.550;2022-09-25T10:39:26;1.93;;;1.20;;
71265;SDS011;59030;52.052;8.550;2022-09-25T10:41:54;2.43;;;1.30;;
71265;SDS011;59030;52.052;8.550;2022-09-25T10:44:27;2.17;;;1.23;;
71265;SDS011;59030;52.052;8.550;2022-09-25T10:46:57;4.80;;;1.50;;
71265;SDS011;59030;52.052;8.550;2022-09-25T10:49:46;0.93;;;0.93;;
71265;SDS011;59030;52.052;8.550;2022-09-25T10:52:44;2.37;;;1.40;;
71265;SDS011;59030;52.052;8.550;2022-09-25T10:55:19;2.07;;;1.30;;
71265;SDS011;59030;52.052;8.550;2022-09-25T10:57:47;1.73;;;1.10;;
71265;SDS011;59030;52.052;8.550;2022-09-25T11:00:22;1.20;;;0.90;;
71265;SDS011;59030;52.052;8.550;2022-09-25T11:02:50;2.53;;;1.20;;
71265;SDS011;59030;52.052;8.550;2022-09-25T11:05:19;1.33;;;1.03;;
71265;SDS011;59030;52.052;8.550;2022-09-25T11:07:47;2.53;;;1.23;;
71265;SDS011;59030;52.052;8.550;2022-09-25T11:10:18;1.23;;;1.10;;
71265;SDS011;59030;52.052;8.550;2022-09-25T11:12:46;2.27;;;1.13;;
71265;SDS011;59030;52.052;8.550;2022-09-25T11:15:16;1.33;;;1.17;;
71265;SDS011;59030;52.052;8.550;2022-09-25T11:17:45;1.87;;;1.30;;
71265;SDS011;59030;52.052;8.550;2022-09-25T11:20:21;1.20;;;1.10;;
71265;SDS011;59030;52.052;8.550;2022-09-25T11:22:52;2.10;;;1.40;;
71265;SDS011;59030;52.052;8.550;2022-09-25T11:25:21;2.63;;;1.30;;
71265;SDS011;59030;52.052;8.550;2022-09-25T11:27:50;1.93;;;1.20;;
71265;SDS011;59030;52.052;8.550;2022-09-25T11:30:19;1.90;;;1.20;;
71265;SDS011;59030;52.052;8.550;2022-09-25T11:32:48;1.57;;;1.10;;
71265;SDS011;59030;52.052;8.550;2022-09-25T11:35:35;2.37;;;1.20;;
71265;SDS011;59030;52.052;8.550;2022-09-25T11:38:16;1.63;;;1.07;;
71265;SDS011;59030;52.052;8.550;2022-09-25T11:40:41;2.13;;;1.40;;
71265;SDS011;59030;52.052;8.550;2022-09-25T11:43:32;2.00;;;1.20;;
71265;SDS011;59030;52.052;8.550;2022-09-25T11:46:00;1.63;;;1.20;;
71265;SDS011;59030;52.052;8.550;2022-09-25T11:48:30;2.63;;;1.07;;
71265;SDS011;59030;52.052;8.550;2022-09-25T11:50:58;3.73;;;1.20;;
71265;SDS011;59030;52.052;8.550;2022-09-25T11:53:29;4.43;;;1.27;;
71265;SDS011;59030;52.052;8.550;2022-09-25T11:56:04;2.13;;;1.10;;
71265;SDS011;59030;52.052;8.550;2022-09-25T11:58:35;1.33;;;1.23;;
71265;SDS011;59030;52.052;8.550;2022-09-25T12:01:05;1.30;;;1.20;;
71265;SDS011;59030;52.052;8.550;2022-09-25T12:03:35;5.90;;;1.30;;
71265;SDS011;59030;52.052;8.550;2022-09-25T12:06:14;3.87;;;1.30;;
71265;SDS011;59030;52.052;8.550;2022-09-25T12:08:46;1.17;;;1.07;;
71265;SDS011;59030;52.052;8.550;2022-09-25T12:11:17;1.53;;;1.20;;
71265;SDS011;59030;52.052;8.550;2022-09-25T12:13:46;1.63;;;1.03;;
71265;SDS011;59030;52.052;8.550;2022-09-25T12:16:17;2.10;;;1.03;;
71265;SDS011;59030;52.052;8.550;2022-09-25T12:18:50;1.13;;;1.00;;
71265;SDS011;59030;52.052;8.550;2022-09-25T12:21:19;1.70;;;1.00;;
71265;SDS011;59030;52.052;8.550;2022-09-25T12:23:48;2.87;;;1.00;;
71265;SDS011;59030;52.052;8.550;2022-09-25T12:26:20;2.57;;;1.30;;
71265;SDS011;59030;52.052;8.550;2022-09-25T12:28:51;0.87;;;0.80;;
71265;SDS011;59030;52.052;8.550;2022-09-25T12:31:22;1.33;;;0.90;;
71265;SDS011;59030;52.052;8.550;2022-09-25T12:33:54;2.93;;;1.20;;
71265;SDS011;59030;52.052;8.550;2022-09-25T12:36:23;1.50;;;1.10;;
71265;SDS011;59030;52.052;8.550;2022-09-25T12:38:51;1.20;;;1.10;;
71265;SDS011;59030;52.052;8.550;2022-09-25T12:41:23;1.43;;;1.20;;
71265;SDS011;59030;52.052;8.550;2022-09-25T12:43:51;3.77;;;1.27;;
71265;SDS011;59030;52.052;8.550;2022-09-25T12:46:21;1.40;;;1.00;;
71265;SDS011;59030;52.052;8.550;2022-09-25T12:48:49;3.87;;;1.10;;
71265;SDS011;59030;52.052;8.550;2022-09-25T12:51:19;1.40;;;0.97;;
71265;SDS011;59030;52.052;8.550;2022-09-25T12:56:26;2.40;;;1.20;;
71265;SDS011;59030;52.052;8.550;2022-09-25T12:58:58;1.37;;;1.00;;
71265;SDS011;59030;52.052;8.550;2022-09-25T13:01:26;1.13;;;0.80;;
71265;SDS011;59030;52.052;8.550;2022-09-25T13:03:59;0.90;;;0.70;;
71265;SDS011;59030;52.052;8.550;2022-09-25T13:06:27;2.63;;;1.00;;
71265;SDS011;59030;52.052;8.550;2022-09-25T13:08:54;1.90;;;0.87;;
71265;SDS011;59030;52.052;8.550;2022-09-25T13:11:26;0.73;;;0.60;;
71265;SDS011;59030;52.052;8.550;2022-09-25T13:13:53;0.70;;;0.70;;
71265;SDS011;59030;52.052;8.550;2022-09-25T13:16:21;1.67;;;0.83;;
71265;SDS011;59030;52.052;8.550;2022-09-25T13:21:24;2.47;;;0.90;;
71265;SDS011;59030;52.052;8.550;2022-09-25T13:23:53;1.13;;;1.03;;
71265;SDS011;59030;52.052;8.550;2022-09-25T13:26:22;1.00;;;0.90;;
71265;SDS011;59030;52.052;8.550;2022-09-25T13:28:53;2.07;;;1.17;;
71265;SDS011;59030;52.052;8.550;2022-09-25T13:31:22;0.80;;;0.70;;
71265;SDS011;59030;52.052;8.550;2022-09-25T13:33:52;1.10;;;0.90;;
71265;SDS011;59030;52.052;8.550;2022-09-25T13:36:34;0.70;;;0.70;;
71265;SDS011;59030;52.052;8.550;2022-09-25T13:39:03;1.80;;;1.10;;
71265;SDS011;59030;52.052;8.550;2022-09-25T13:41:50;1.60;;;0.90;;
71265;SDS011;59030;52.052;8.550;2022-09-25T13:49:51;1.30;;;0.77;;
71265;SDS011;59030;52.052;8.550;2022-09-25T13:52:29;2.00;;;1.10;;
71265;SDS011;59030;52.052;8.550;2022-09-25T13:55:10;2.60;;;0.83;;
71265;SDS011;59030;52.052;8.550;2022-09-25T13:58:00;1.17;;;1.10;;
71265;SDS011;59030;52.052;8.550;2022-09-25T14:02:58;4.33;;;1.33;;
71265;SDS011;59030;52.052;8.550;2022-09-25T14:05:28;1.43;;;0.97;;
71265;SDS011;59030;52.052;8.550;2022-09-25T14:07:59;1.23;;;0.97;;
71265;SDS011;59030;52.052;8.550;2022-09-25T14:10:26;2.23;;;1.00;;
71265;SDS011;59030;52.052;8.550;2022-09-25T14:12:54;3.73;;;1.07;;
71265;SDS011;59030;52.052;8.550;2022-09-25T14:15:23;2.30;;;0.80;;
71265;SDS011;59030;52.052;8.550;2022-09-25T14:17:52;1.87;;;1.00;;
71265;SDS011;59030;52.052;8.550;2022-09-25T14:20:56;2.77;;;1.10;;
71265;SDS011;59030;52.052;8.550;2022-09-25T14:23:25;2.30;;;0.80;;
71265;SDS011;59030;52.052;8.550;2022-09-25T14:25:58;2.57;;;0.90;;
71265;SDS011;59030;52.052;8.550;2022-09-25T14:28:26;1.13;;;1.03;;
71265;SDS011;59030;52.052;8.550;2022-09-25T14:31:17;2.10;;;1.00;;
71265;SDS011;59030;52.052;8.550;2022-09-25T14:33:42;4.30;;;1.17;;
71265;SDS011;59030;52.052;8.550;2022-09-25T14:36:12;3.13;;;1.10;;
71265;SDS011;59030;52.052;8.550;2022-09-25T14:47:21;2.50;;;1.00;;
71265;SDS011;59030;52.052;8.550;2022-09-25T14:49:49;2.63;;;1.00;;
71265;SDS011;59030;52.052;8.550;2022-09-25T14:52:19;1.10;;;0.87;;
71265;SDS011;59030;52.052;8.550;2022-09-25T14:54:49;1.77;;;0.70;;
71265;SDS011;59030;52.052;8.550;2022-09-25T14:57:20;2.17;;;0.93;;
71265;SDS011;59030;52.052;8.550;2022-09-25T14:59:50;0.40;;;0.40;;
71265;SDS011;59030;52.052;8.550;2022-09-25T15:02:20;1.37;;;0.43;;
71265;SDS011;59030;52.052;8.550;2022-09-25T15:04:48;1.57;;;0.63;;
71265;SDS011;59030;52.052;8.550;2022-09-25T15:07:18;1.80;;;0.80;;
71265;SDS011;59030;52.052;8.550;2022-09-25T15:09:49;0.87;;;0.70;;
71265;SDS011;59030;52.052;8.550;2022-09-25T15:12:19;0.60;;;0.60;;
71265;SDS011;59030;52.052;8.550;2022-09-25T15:15:00;0.57;;;0.57;;
71265;SDS011;59030;52.052;8.550;2022-09-25T15:17:28;1.63;;;0.73;;
71265;SDS011;59030;52.052;8.550;2022-09-25T15:19:57;1.33;;;0.90;;
71265;SDS011;59030;52.052;8.550;2022-09-25T15:22:29;1.37;;;0.50;;
71265;SDS011;59030;52.052;8.550;2022-09-25T15:24:57;1.03;;;0.60;;
71265;SDS011;59030;52.052;8.550;2022-09-25T15:27:25;1.07;;;0.97;;
71265;SDS011;59030;52.052;8.550;2022-09-25T15:29:53;1.10;;;0.97;;
71265;SDS011;59030;52.052;8.550;2022-09-25T15:32:22;1.40;;;0.90;;
71265;SDS011;59030;52.052;8.550;2022-09-25T15:34:50;0.60;;;0.60;;
71265;SDS011;59030;52.052;8.550;2022-09-25T15:37:20;0.50;;;0.50;;